sensor_id;sensor_type;location;lat;lon;timestamp;P1;durP1;ratioP1;P2;durP2;ratioP2
20865;SDS011;10593;48.398;10.698;2024-02-16T00:00:23;2.80;;;2.60;;
20865;SDS011;10593;48.398;10.698;2024-02-16T00:02:49;3.03;;;2.73;;
20865;SDS011;10593;48.398;10.698;2024-02-16T00:05:15;3.00;;;2.70;;
20865;SDS011;10593;48.398;10.698;2024-02-16T00:07:41;2.80;;;2.60;;
20865;SDS011;10593;48.398;10.698;2024-02-16T00:10:08;2.80;;;2.60;;
20865;SDS011;10593;48.398;10.698;2024-02-16T00:12:34;2.13;;;2.03;;
20865;SDS011;10593;48.398;10.698;2024-02-16T00:15:01;2.00;;;1.90;;
20865;SDS011;10593;48.398;10.698;2024-02-16T00:17:27;2.20;;;2.00;;
20865;SDS011;10593;48.398;10.698;2024-02-16T00:19:56;2.03;;;1.93;;
20865;SDS011;10593;48.398;10.698;2024-02-16T00:22:22;2.13;;;2.00;;
20865;SDS011;10593;48.398;10.698;2024-02-16T00:24:48;2.43;;;2.23;;
20865;SDS011;10593;48.398;10.698;2024-02-16T00:27:15;2.10;;;2.00;;
20865;SDS011;10593;48.398;10.698;2024-02-16T00:29:41;2.13;;;1.93;;
20865;SDS011;10593;48.398;10.698;2024-02-16T00:32:07;4.47;;;1.97;;
20865;SDS011;10593;48.398;10.698;2024-02-16T00:34:35;2.33;;;2.13;;
20865;SDS011;10593;48.398;10.698;2024-02-16T00:37:02;2.17;;;1.83;;
20865;SDS011;10593;48.398;10.698;2024-02-16T00:39:35;1.93;;;1.83;;
20865;SDS011;10593;48.398;10.698;2024-02-16T00:42:02;2.23;;;2.10;;
20865;SDS011;10593;48.398;10.698;2024-02-16T00:44:28;2.03;;;1.93;;
20865;SDS011;10593;48.398;10.698;2024-02-16T00:46:54;1.90;;;1.80;;
20865;SDS011;10593;48.398;10.698;2024-02-16T00:49:19;2.47;;;2.00;;
20865;SDS011;10593;48.398;10.698;2024-02-16T00:51:45;1.90;;;1.80;;
20865;SDS011;10593;48.398;10.698;2024-02-16T00:54:11;2.20;;;1.73;;
20865;SDS011;10593;48.398;10.698;2024-02-16T00:56:37;2.73;;;2.10;;
20865;SDS011;10593;48.398;10.698;2024-02-16T00:59:03;2.03;;;1.83;;
20865;SDS011;10593;48.398;10.698;2024-02-16T01:01:30;2.00;;;1.90;;
20865;SDS011;10593;48.398;10.698;2024-02-16T01:03:56;2.30;;;2.03;;
20865;SDS011;10593;48.398;10.698;2024-02-16T01:06:22;2.13;;;2.03;;
20865;SDS011;10593;48.398;10.698;2024-02-16T01:08:47;2.33;;;2.13;;
20865;SDS011;10593;48.398;10.698;2024-02-16T01:11:13;1.90;;;1.80;;
20865;SDS011;10593;48.398;10.698;2024-02-16T01:13:39;1.80;;;1.70;;
20865;SDS011;10593;48.398;10.698;2024-02-16T01:16:05;2.30;;;2.10;;
20865;SDS011;10593;48.398;10.698;2024-02-16T01:18:31;2.23;;;1.93;;
20865;SDS011;10593;48.398;10.698;2024-02-16T01:20:58;2.40;;;2.27;;
20865;SDS011;10593;48.398;10.698;2024-02-16T01:23:24;2.27;;;2.17;;
20865;SDS011;10593;48.398;10.698;2024-02-16T01:25:49;3.03;;;2.83;;
20865;SDS011;10593;48.398;10.698;2024-02-16T01:28:15;2.83;;;2.63;;
20865;SDS011;10593;48.398;10.698;2024-02-16T01:30:41;2.53;;;2.37;;
20865;SDS011;10593;48.398;10.698;2024-02-16T01:33:07;3.10;;;2.23;;
20865;SDS011;10593;48.398;10.698;2024-02-16T01:35:33;2.63;;;1.90;;
20865;SDS011;10593;48.398;10.698;2024-02-16T01:37:59;2.43;;;1.90;;
20865;SDS011;10593;48.398;10.698;2024-02-16T01:40:26;1.80;;;1.70;;
20865;SDS011;10593;48.398;10.698;2024-02-16T01:42:52;1.83;;;1.73;;
20865;SDS011;10593;48.398;10.698;2024-02-16T01:45:18;2.77;;;1.87;;
20865;SDS011;10593;48.398;10.698;2024-02-16T01:47:45;3.77;;;1.90;;
20865;SDS011;10593;48.398;10.698;2024-02-16T01:50:14;1.97;;;1.87;;
20865;SDS011;10593;48.398;10.698;2024-02-16T01:52:43;2.00;;;1.90;;
20865;SDS011;10593;48.398;10.698;2024-02-16T01:55:11;2.63;;;2.00;;
20865;SDS011;10593;48.398;10.698;2024-02-16T01:57:38;1.97;;;1.87;;
20865;SDS011;10593;48.398;10.698;2024-02-16T02:00:05;2.30;;;2.10;;
20865;SDS011;10593;48.398;10.698;2024-02-16T02:02:33;2.37;;;2.17;;
20865;SDS011;10593;48.398;10.698;2024-02-16T02:05:02;2.20;;;2.00;;
20865;SDS011;10593;48.398;10.698;2024-02-16T02:07:29;2.30;;;2.10;;
20865;SDS011;10593;48.398;10.698;2024-02-16T02:09:55;2.10;;;2.00;;
20865;SDS011;10593;48.398;10.698;2024-02-16T02:12:21;2.93;;;2.20;;
20865;SDS011;10593;48.398;10.698;2024-02-16T02:14:47;2.57;;;2.37;;
20865;SDS011;10593;48.398;10.698;2024-02-16T02:17:14;3.10;;;2.47;;
20865;SDS011;10593;48.398;10.698;2024-02-16T02:19:40;2.10;;;1.83;;
20865;SDS011;10593;48.398;10.698;2024-02-16T02:22:18;2.20;;;2.10;;
20865;SDS011;10593;48.398;10.698;2024-02-16T02:24:45;2.60;;;2.40;;
20865;SDS011;10593;48.398;10.698;2024-02-16T02:27:13;2.23;;;2.13;;
20865;SDS011;10593;48.398;10.698;2024-02-16T02:29:40;3.43;;;2.50;;
20865;SDS011;10593;48.398;10.698;2024-02-16T02:32:07;2.37;;;2.27;;
20865;SDS011;10593;48.398;10.698;2024-02-16T02:34:33;2.73;;;2.53;;
20865;SDS011;10593;48.398;10.698;2024-02-16T02:37:01;2.83;;;2.40;;
20865;SDS011;10593;48.398;10.698;2024-02-16T02:39:29;2.57;;;2.37;;
20865;SDS011;10593;48.398;10.698;2024-02-16T02:41:55;2.67;;;2.47;;
20865;SDS011;10593;48.398;10.698;2024-02-16T02:44:20;2.83;;;2.63;;
20865;SDS011;10593;48.398;10.698;2024-02-16T02:46:46;3.20;;;2.70;;
20865;SDS011;10593;48.398;10.698;2024-02-16T02:49:12;2.77;;;2.40;;
20865;SDS011;10593;48.398;10.698;2024-02-16T02:51:37;2.63;;;2.33;;
20865;SDS011;10593;48.398;10.698;2024-02-16T02:54:03;2.40;;;2.20;;
20865;SDS011;10593;48.398;10.698;2024-02-16T02:56:29;2.60;;;2.40;;
20865;SDS011;10593;48.398;10.698;2024-02-16T02:58:55;3.07;;;2.70;;
20865;SDS011;10593;48.398;10.698;2024-02-16T03:01:20;2.57;;;2.37;;
20865;SDS011;10593;48.398;10.698;2024-02-16T03:03:47;2.70;;;2.50;;
20865;SDS011;10593;48.398;10.698;2024-02-16T03:06:17;2.90;;;2.70;;
20865;SDS011;10593;48.398;10.698;2024-02-16T03:08:44;2.63;;;2.33;;
20865;SDS011;10593;48.398;10.698;2024-02-16T03:11:10;2.50;;;2.30;;
20865;SDS011;10593;48.398;10.698;2024-02-16T03:13:36;2.20;;;2.00;;
20865;SDS011;10593;48.398;10.698;2024-02-16T03:16:02;2.13;;;2.00;;
20865;SDS011;10593;48.398;10.698;2024-02-16T03:18:29;2.77;;;2.37;;
20865;SDS011;10593;48.398;10.698;2024-02-16T03:20:55;2.30;;;2.10;;
20865;SDS011;10593;48.398;10.698;2024-02-16T03:23:22;2.03;;;1.83;;
20865;SDS011;10593;48.398;10.698;2024-02-16T03:25:48;2.27;;;2.17;;
20865;SDS011;10593;48.398;10.698;2024-02-16T03:28:14;2.17;;;2.03;;
20865;SDS011;10593;48.398;10.698;2024-02-16T03:30:40;3.13;;;2.17;;
20865;SDS011;10593;48.398;10.698;2024-02-16T03:33:08;2.77;;;2.40;;
20865;SDS011;10593;48.398;10.698;2024-02-16T03:35:35;2.70;;;2.50;;
20865;SDS011;10593;48.398;10.698;2024-02-16T03:38:02;3.23;;;2.93;;
20865;SDS011;10593;48.398;10.698;2024-02-16T03:40:29;3.33;;;3.13;;
20865;SDS011;10593;48.398;10.698;2024-02-16T03:42:55;3.00;;;2.80;;
20865;SDS011;10593;48.398;10.698;2024-02-16T03:45:20;3.20;;;3.00;;
20865;SDS011;10593;48.398;10.698;2024-02-16T03:47:48;3.63;;;3.33;;
20865;SDS011;10593;48.398;10.698;2024-02-16T03:50:14;2.90;;;2.70;;
20865;SDS011;10593;48.398;10.698;2024-02-16T03:52:40;2.80;;;2.60;;
20865;SDS011;10593;48.398;10.698;2024-02-16T03:55:06;3.23;;;2.93;;
20865;SDS011;10593;48.398;10.698;2024-02-16T03:57:33;3.13;;;2.47;;
20865;SDS011;10593;48.398;10.698;2024-02-16T03:59:58;2.60;;;2.40;;
20865;SDS011;10593;48.398;10.698;2024-02-16T04:02:24;2.53;;;2.43;;
20865;SDS011;10593;48.398;10.698;2024-02-16T04:04:50;2.60;;;2.40;;
20865;SDS011;10593;48.398;10.698;2024-02-16T04:07:16;2.60;;;2.40;;
20865;SDS011;10593;48.398;10.698;2024-02-16T04:09:42;2.60;;;2.40;;
20865;SDS011;10593;48.398;10.698;2024-02-16T04:12:08;2.60;;;2.40;;
20865;SDS011;10593;48.398;10.698;2024-02-16T04:14:35;3.30;;;2.60;;
20865;SDS011;10593;48.398;10.698;2024-02-16T04:17:01;2.83;;;2.60;;
20865;SDS011;10593;48.398;10.698;2024-02-16T04:19:26;3.47;;;2.60;;
20865;SDS011;10593;48.398;10.698;2024-02-16T04:21:52;2.70;;;2.50;;
20865;SDS011;10593;48.398;10.698;2024-02-16T04:24:18;3.13;;;2.83;;
20865;SDS011;10593;48.398;10.698;2024-02-16T04:26:44;2.93;;;2.63;;
20865;SDS011;10593;48.398;10.698;2024-02-16T04:29:09;2.80;;;2.50;;
20865;SDS011;10593;48.398;10.698;2024-02-16T04:31:38;3.13;;;2.93;;
20865;SDS011;10593;48.398;10.698;2024-02-16T04:34:05;2.53;;;2.33;;
20865;SDS011;10593;48.398;10.698;2024-02-16T04:36:31;3.20;;;2.90;;
20865;SDS011;10593;48.398;10.698;2024-02-16T04:38:56;2.87;;;2.60;;
20865;SDS011;10593;48.398;10.698;2024-02-16T04:41:22;2.80;;;2.60;;
20865;SDS011;10593;48.398;10.698;2024-02-16T04:43:48;2.90;;;2.70;;
20865;SDS011;10593;48.398;10.698;2024-02-16T04:46:17;3.43;;;3.03;;
20865;SDS011;10593;48.398;10.698;2024-02-16T04:48:42;3.10;;;2.70;;
20865;SDS011;10593;48.398;10.698;2024-02-16T04:51:08;3.00;;;2.80;;
20865;SDS011;10593;48.398;10.698;2024-02-16T04:53:36;2.90;;;2.70;;
20865;SDS011;10593;48.398;10.698;2024-02-16T04:56:02;3.20;;;2.90;;
20865;SDS011;10593;48.398;10.698;2024-02-16T04:58:28;3.40;;;3.10;;
20865;SDS011;10593;48.398;10.698;2024-02-16T05:00:53;3.33;;;3.03;;
20865;SDS011;10593;48.398;10.698;2024-02-16T05:03:19;3.37;;;3.07;;
20865;SDS011;10593;48.398;10.698;2024-02-16T05:05:45;3.57;;;3.27;;
20865;SDS011;10593;48.398;10.698;2024-02-16T05:08:10;4.13;;;3.43;;
20865;SDS011;10593;48.398;10.698;2024-02-16T05:10:36;2.90;;;2.70;;
20865;SDS011;10593;48.398;10.698;2024-02-16T05:13:03;3.10;;;2.90;;
20865;SDS011;10593;48.398;10.698;2024-02-16T05:15:29;3.40;;;3.10;;
20865;SDS011;10593;48.398;10.698;2024-02-16T05:17:56;3.87;;;3.57;;
20865;SDS011;10593;48.398;10.698;2024-02-16T05:20:22;4.10;;;3.80;;
20865;SDS011;10593;48.398;10.698;2024-02-16T05:22:48;3.73;;;3.43;;
20865;SDS011;10593;48.398;10.698;2024-02-16T05:25:17;3.23;;;2.97;;
20865;SDS011;10593;48.398;10.698;2024-02-16T05:27:44;2.97;;;2.73;;
20865;SDS011;10593;48.398;10.698;2024-02-16T05:30:12;4.33;;;3.03;;
20865;SDS011;10593;48.398;10.698;2024-02-16T05:32:40;2.87;;;2.50;;
20865;SDS011;10593;48.398;10.698;2024-02-16T05:35:07;3.43;;;2.80;;
20865;SDS011;10593;48.398;10.698;2024-02-16T05:37:37;3.00;;;2.70;;
20865;SDS011;10593;48.398;10.698;2024-02-16T05:40:16;3.10;;;2.90;;
20865;SDS011;10593;48.398;10.698;2024-02-16T05:42:52;3.47;;;3.17;;
20865;SDS011;10593;48.398;10.698;2024-02-16T05:45:19;2.87;;;2.67;;
20865;SDS011;10593;48.398;10.698;2024-02-16T05:47:48;3.30;;;3.00;;
20865;SDS011;10593;48.398;10.698;2024-02-16T05:50:16;3.23;;;2.97;;
20865;SDS011;10593;48.398;10.698;2024-02-16T05:52:42;3.63;;;3.10;;
20865;SDS011;10593;48.398;10.698;2024-02-16T05:55:09;3.03;;;2.83;;
20865;SDS011;10593;48.398;10.698;2024-02-16T05:57:36;5.80;;;3.10;;
20865;SDS011;10593;48.398;10.698;2024-02-16T06:00:04;4.70;;;3.47;;
20865;SDS011;10593;48.398;10.698;2024-02-16T06:02:32;5.03;;;3.03;;
20865;SDS011;10593;48.398;10.698;2024-02-16T06:04:58;3.43;;;3.10;;
20865;SDS011;10593;48.398;10.698;2024-02-16T06:07:25;3.43;;;3.10;;
20865;SDS011;10593;48.398;10.698;2024-02-16T06:09:51;3.57;;;3.27;;
20865;SDS011;10593;48.398;10.698;2024-02-16T06:12:19;3.80;;;3.10;;
20865;SDS011;10593;48.398;10.698;2024-02-16T06:14:45;3.23;;;2.97;;
20865;SDS011;10593;48.398;10.698;2024-02-16T06:17:11;3.27;;;2.97;;
20865;SDS011;10593;48.398;10.698;2024-02-16T06:19:39;3.13;;;2.93;;
20865;SDS011;10593;48.398;10.698;2024-02-16T06:22:08;3.43;;;3.20;;
20865;SDS011;10593;48.398;10.698;2024-02-16T06:24:35;3.20;;;3.00;;
20865;SDS011;10593;48.398;10.698;2024-02-16T06:27:01;3.57;;;2.73;;
20865;SDS011;10593;48.398;10.698;2024-02-16T06:29:28;3.87;;;3.10;;
20865;SDS011;10593;48.398;10.698;2024-02-16T06:31:55;2.87;;;2.67;;
20865;SDS011;10593;48.398;10.698;2024-02-16T06:34:21;3.00;;;2.80;;
20865;SDS011;10593;48.398;10.698;2024-02-16T06:36:46;3.00;;;2.80;;
20865;SDS011;10593;48.398;10.698;2024-02-16T06:39:13;3.00;;;2.80;;
20865;SDS011;10593;48.398;10.698;2024-02-16T06:41:45;3.30;;;3.00;;
20865;SDS011;10593;48.398;10.698;2024-02-16T06:44:14;3.37;;;3.07;;
20865;SDS011;10593;48.398;10.698;2024-02-16T06:46:41;2.93;;;2.73;;
20865;SDS011;10593;48.398;10.698;2024-02-16T06:49:07;2.80;;;2.60;;
20865;SDS011;10593;48.398;10.698;2024-02-16T06:51:33;3.00;;;2.80;;
20865;SDS011;10593;48.398;10.698;2024-02-16T06:53:59;3.00;;;2.80;;
20865;SDS011;10593;48.398;10.698;2024-02-16T06:56:25;2.90;;;2.70;;
20865;SDS011;10593;48.398;10.698;2024-02-16T06:58:51;2.60;;;2.50;;
20865;SDS011;10593;48.398;10.698;2024-02-16T07:01:17;3.83;;;3.23;;
20865;SDS011;10593;48.398;10.698;2024-02-16T07:03:45;3.33;;;3.13;;
20865;SDS011;10593;48.398;10.698;2024-02-16T07:06:11;3.30;;;3.10;;
20865;SDS011;10593;48.398;10.698;2024-02-16T07:08:42;3.33;;;3.03;;
20865;SDS011;10593;48.398;10.698;2024-02-16T07:11:09;3.30;;;3.07;;
20865;SDS011;10593;48.398;10.698;2024-02-16T07:13:38;3.30;;;3.00;;
20865;SDS011;10593;48.398;10.698;2024-02-16T07:16:07;3.70;;;3.40;;
20865;SDS011;10593;48.398;10.698;2024-02-16T07:18:33;4.10;;;3.70;;
20865;SDS011;10593;48.398;10.698;2024-02-16T07:20:59;3.60;;;3.30;;
20865;SDS011;10593;48.398;10.698;2024-02-16T07:23:25;3.77;;;3.47;;
20865;SDS011;10593;48.398;10.698;2024-02-16T07:25:51;3.87;;;3.57;;
20865;SDS011;10593;48.398;10.698;2024-02-16T07:28:20;3.97;;;3.70;;
20865;SDS011;10593;48.398;10.698;2024-02-16T07:30:46;3.50;;;3.30;;
20865;SDS011;10593;48.398;10.698;2024-02-16T07:33:12;3.60;;;3.20;;
20865;SDS011;10593;48.398;10.698;2024-02-16T07:35:37;4.17;;;3.80;;
20865;SDS011;10593;48.398;10.698;2024-02-16T07:38:03;4.03;;;3.73;;
20865;SDS011;10593;48.398;10.698;2024-02-16T07:40:30;4.73;;;3.73;;
20865;SDS011;10593;48.398;10.698;2024-02-16T07:42:56;3.90;;;3.60;;
20865;SDS011;10593;48.398;10.698;2024-02-16T07:45:22;4.03;;;3.60;;
20865;SDS011;10593;48.398;10.698;2024-02-16T07:47:48;4.07;;;3.70;;
20865;SDS011;10593;48.398;10.698;2024-02-16T07:50:17;4.90;;;4.40;;
20865;SDS011;10593;48.398;10.698;2024-02-16T07:52:47;5.07;;;4.40;;
20865;SDS011;10593;48.398;10.698;2024-02-16T07:55:14;3.90;;;3.50;;
20865;SDS011;10593;48.398;10.698;2024-02-16T07:57:43;3.80;;;3.50;;
20865;SDS011;10593;48.398;10.698;2024-02-16T08:00:10;4.13;;;3.70;;
20865;SDS011;10593;48.398;10.698;2024-02-16T08:02:36;3.70;;;3.40;;
20865;SDS011;10593;48.398;10.698;2024-02-16T08:05:04;3.47;;;3.27;;
20865;SDS011;10593;48.398;10.698;2024-02-16T08:07:31;3.50;;;3.30;;
20865;SDS011;10593;48.398;10.698;2024-02-16T08:09:56;3.87;;;3.57;;
20865;SDS011;10593;48.398;10.698;2024-02-16T08:12:22;3.97;;;3.50;;
20865;SDS011;10593;48.398;10.698;2024-02-16T08:14:48;3.87;;;3.57;;
20865;SDS011;10593;48.398;10.698;2024-02-16T08:17:14;3.50;;;3.20;;
20865;SDS011;10593;48.398;10.698;2024-02-16T08:19:39;3.60;;;3.30;;
20865;SDS011;10593;48.398;10.698;2024-02-16T08:22:06;3.60;;;3.13;;
20865;SDS011;10593;48.398;10.698;2024-02-16T08:24:33;4.63;;;3.37;;
20865;SDS011;10593;48.398;10.698;2024-02-16T08:27:00;3.57;;;3.27;;
20865;SDS011;10593;48.398;10.698;2024-02-16T08:29:26;4.23;;;3.83;;
20865;SDS011;10593;48.398;10.698;2024-02-16T08:31:52;4.57;;;4.17;;
20865;SDS011;10593;48.398;10.698;2024-02-16T08:34:19;3.50;;;3.27;;
20865;SDS011;10593;48.398;10.698;2024-02-16T08:36:45;3.80;;;3.50;;
20865;SDS011;10593;48.398;10.698;2024-02-16T08:39:15;4.73;;;3.67;;
20865;SDS011;10593;48.398;10.698;2024-02-16T08:41:42;3.53;;;3.23;;
20865;SDS011;10593;48.398;10.698;2024-02-16T08:44:09;4.00;;;3.67;;
20865;SDS011;10593;48.398;10.698;2024-02-16T08:46:37;4.20;;;3.90;;
20865;SDS011;10593;48.398;10.698;2024-02-16T08:49:04;4.20;;;3.80;;
20865;SDS011;10593;48.398;10.698;2024-02-16T08:51:34;4.53;;;4.13;;
20865;SDS011;10593;48.398;10.698;2024-02-16T08:54:00;3.90;;;3.60;;
20865;SDS011;10593;48.398;10.698;2024-02-16T08:56:27;3.70;;;3.50;;
20865;SDS011;10593;48.398;10.698;2024-02-16T08:58:53;4.27;;;3.90;;
20865;SDS011;10593;48.398;10.698;2024-02-16T09:01:29;5.03;;;4.53;;
20865;SDS011;10593;48.398;10.698;2024-02-16T09:03:59;4.17;;;3.87;;
20865;SDS011;10593;48.398;10.698;2024-02-16T09:06:25;4.27;;;3.97;;
20865;SDS011;10593;48.398;10.698;2024-02-16T09:08:52;4.67;;;4.03;;
20865;SDS011;10593;48.398;10.698;2024-02-16T09:11:17;4.10;;;3.70;;
20865;SDS011;10593;48.398;10.698;2024-02-16T09:13:44;3.90;;;3.57;;
20865;SDS011;10593;48.398;10.698;2024-02-16T09:16:09;4.17;;;3.57;;
20865;SDS011;10593;48.398;10.698;2024-02-16T09:18:35;4.20;;;3.80;;
20865;SDS011;10593;48.398;10.698;2024-02-16T09:21:03;4.60;;;4.20;;
20865;SDS011;10593;48.398;10.698;2024-02-16T09:23:33;4.10;;;3.80;;
20865;SDS011;10593;48.398;10.698;2024-02-16T09:26:01;3.83;;;3.43;;
20865;SDS011;10593;48.398;10.698;2024-02-16T09:28:29;4.20;;;3.80;;
20865;SDS011;10593;48.398;10.698;2024-02-16T09:30:55;4.33;;;4.03;;
20865;SDS011;10593;48.398;10.698;2024-02-16T09:33:22;4.07;;;3.77;;
20865;SDS011;10593;48.398;10.698;2024-02-16T09:35:49;3.83;;;3.53;;
20865;SDS011;10593;48.398;10.698;2024-02-16T09:38:15;5.20;;;4.70;;
20865;SDS011;10593;48.398;10.698;2024-02-16T09:40:40;4.07;;;3.77;;
20865;SDS011;10593;48.398;10.698;2024-02-16T09:43:07;4.90;;;4.23;;
20865;SDS011;10593;48.398;10.698;2024-02-16T09:45:33;4.57;;;4.17;;
20865;SDS011;10593;48.398;10.698;2024-02-16T09:47:59;5.07;;;4.57;;
20865;SDS011;10593;48.398;10.698;2024-02-16T09:50:25;4.50;;;4.00;;
20865;SDS011;10593;48.398;10.698;2024-02-16T09:52:54;4.87;;;4.37;;
20865;SDS011;10593;48.398;10.698;2024-02-16T09:55:21;4.60;;;4.20;;
20865;SDS011;10593;48.398;10.698;2024-02-16T09:57:47;4.80;;;4.40;;
20865;SDS011;10593;48.398;10.698;2024-02-16T10:00:26;5.03;;;4.17;;
20865;SDS011;10593;48.398;10.698;2024-02-16T10:02:52;4.57;;;4.17;;
20865;SDS011;10593;48.398;10.698;2024-02-16T10:05:21;4.30;;;3.90;;
20865;SDS011;10593;48.398;10.698;2024-02-16T10:07:48;4.10;;;3.70;;
20865;SDS011;10593;48.398;10.698;2024-02-16T10:13:05;3.80;;;3.23;;
20865;SDS011;10593;48.398;10.698;2024-02-16T10:15:34;3.40;;;3.10;;
20865;SDS011;10593;48.398;10.698;2024-02-16T10:18:01;4.00;;;3.70;;
20865;SDS011;10593;48.398;10.698;2024-02-16T10:20:29;3.00;;;2.80;;
20865;SDS011;10593;48.398;10.698;2024-02-16T10:23:06;3.27;;;3.03;;
20865;SDS011;10593;48.398;10.698;2024-02-16T10:25:39;3.77;;;3.20;;
20865;SDS011;10593;48.398;10.698;2024-02-16T10:28:09;2.90;;;2.70;;
20865;SDS011;10593;48.398;10.698;2024-02-16T10:30:39;2.73;;;2.53;;
20865;SDS011;10593;48.398;10.698;2024-02-16T10:33:11;3.20;;;3.00;;
20865;SDS011;10593;48.398;10.698;2024-02-16T10:35:39;3.13;;;2.70;;
20865;SDS011;10593;48.398;10.698;2024-02-16T10:38:07;3.40;;;3.10;;
20865;SDS011;10593;48.398;10.698;2024-02-16T10:40:37;3.37;;;2.70;;
20865;SDS011;10593;48.398;10.698;2024-02-16T10:43:06;3.07;;;2.77;;
20865;SDS011;10593;48.398;10.698;2024-02-16T10:45:35;3.57;;;2.80;;
20865;SDS011;10593;48.398;10.698;2024-02-16T10:48:03;3.03;;;2.60;;
20865;SDS011;10593;48.398;10.698;2024-02-16T10:50:34;2.87;;;2.67;;
20865;SDS011;10593;48.398;10.698;2024-02-16T10:55:36;2.47;;;2.27;;
20865;SDS011;10593;48.398;10.698;2024-02-16T10:58:02;2.70;;;2.50;;
20865;SDS011;10593;48.398;10.698;2024-02-16T11:00:28;2.80;;;2.60;;
20865;SDS011;10593;48.398;10.698;2024-02-16T11:02:54;2.60;;;2.40;;
20865;SDS011;10593;48.398;10.698;2024-02-16T11:08:11;2.60;;;2.40;;
20865;SDS011;10593;48.398;10.698;2024-02-16T11:10:39;2.87;;;2.40;;
20865;SDS011;10593;48.398;10.698;2024-02-16T11:13:05;3.00;;;2.70;;
20865;SDS011;10593;48.398;10.698;2024-02-16T11:15:31;2.60;;;2.40;;
20865;SDS011;10593;48.398;10.698;2024-02-16T11:18:01;3.40;;;2.60;;
20865;SDS011;10593;48.398;10.698;2024-02-16T11:20:35;2.70;;;2.50;;
20865;SDS011;10593;48.398;10.698;2024-02-16T11:23:08;2.43;;;2.23;;
20865;SDS011;10593;48.398;10.698;2024-02-16T11:25:34;3.03;;;2.40;;
20865;SDS011;10593;48.398;10.698;2024-02-16T11:28:01;2.67;;;2.47;;
20865;SDS011;10593;48.398;10.698;2024-02-16T11:30:34;2.63;;;2.37;;
20865;SDS011;10593;48.398;10.698;2024-02-16T11:33:00;2.60;;;2.40;;
20865;SDS011;10593;48.398;10.698;2024-02-16T11:35:26;2.97;;;2.10;;
20865;SDS011;10593;48.398;10.698;2024-02-16T11:37:52;3.43;;;2.30;;
20865;SDS011;10593;48.398;10.698;2024-02-16T11:40:20;2.93;;;2.73;;
20865;SDS011;10593;48.398;10.698;2024-02-16T11:42:45;2.30;;;2.20;;
20865;SDS011;10593;48.398;10.698;2024-02-16T11:45:11;2.53;;;2.33;;
20865;SDS011;10593;48.398;10.698;2024-02-16T11:47:38;2.53;;;2.33;;
20865;SDS011;10593;48.398;10.698;2024-02-16T11:50:04;2.47;;;2.27;;
20865;SDS011;10593;48.398;10.698;2024-02-16T11:52:43;2.17;;;1.97;;
20865;SDS011;10593;48.398;10.698;2024-02-16T11:55:09;2.60;;;2.40;;
20865;SDS011;10593;48.398;10.698;2024-02-16T11:57:36;2.60;;;2.40;;
20865;SDS011;10593;48.398;10.698;2024-02-16T12:00:05;2.40;;;2.20;;
20865;SDS011;10593;48.398;10.698;2024-02-16T12:02:39;2.60;;;2.40;;
20865;SDS011;10593;48.398;10.698;2024-02-16T12:05:05;2.47;;;2.27;;
20865;SDS011;10593;48.398;10.698;2024-02-16T12:07:32;2.50;;;2.30;;
20865;SDS011;10593;48.398;10.698;2024-02-16T12:10:02;2.40;;;2.20;;
20865;SDS011;10593;48.398;10.698;2024-02-16T12:12:31;2.97;;;2.10;;
20865;SDS011;10593;48.398;10.698;2024-02-16T12:14:57;2.40;;;2.20;;
20865;SDS011;10593;48.398;10.698;2024-02-16T12:17:24;2.37;;;2.17;;
20865;SDS011;10593;48.398;10.698;2024-02-16T12:19:50;2.17;;;2.07;;
20865;SDS011;10593;48.398;10.698;2024-02-16T12:22:17;2.33;;;2.00;;
20865;SDS011;10593;48.398;10.698;2024-02-16T12:24:45;3.57;;;2.03;;
20865;SDS011;10593;48.398;10.698;2024-02-16T12:27:17;2.37;;;2.13;;
20865;SDS011;10593;48.398;10.698;2024-02-16T12:29:43;2.43;;;2.23;;
20865;SDS011;10593;48.398;10.698;2024-02-16T12:32:09;5.13;;;2.43;;
20865;SDS011;10593;48.398;10.698;2024-02-16T12:34:35;2.13;;;2.03;;
20865;SDS011;10593;48.398;10.698;2024-02-16T12:37:04;2.40;;;2.20;;
20865;SDS011;10593;48.398;10.698;2024-02-16T12:39:35;2.33;;;2.17;;
20865;SDS011;10593;48.398;10.698;2024-02-16T12:42:01;3.17;;;2.20;;
20865;SDS011;10593;48.398;10.698;2024-02-16T12:44:26;1.93;;;1.77;;
20865;SDS011;10593;48.398;10.698;2024-02-16T12:46:52;2.90;;;1.87;;
20865;SDS011;10593;48.398;10.698;2024-02-16T12:49:18;2.10;;;2.00;;
20865;SDS011;10593;48.398;10.698;2024-02-16T12:51:46;1.90;;;1.67;;
20865;SDS011;10593;48.398;10.698;2024-02-16T12:54:14;2.43;;;2.00;;
20865;SDS011;10593;48.398;10.698;2024-02-16T12:56:43;2.30;;;1.70;;
20865;SDS011;10593;48.398;10.698;2024-02-16T12:59:13;2.23;;;2.03;;
20865;SDS011;10593;48.398;10.698;2024-02-16T13:01:39;1.90;;;1.70;;
20865;SDS011;10593;48.398;10.698;2024-02-16T13:04:06;2.37;;;1.97;;
20865;SDS011;10593;48.398;10.698;2024-02-16T13:06:32;2.10;;;1.60;;
20865;SDS011;10593;48.398;10.698;2024-02-16T13:08:58;1.50;;;1.40;;
20865;SDS011;10593;48.398;10.698;2024-02-16T13:11:24;2.70;;;2.00;;
20865;SDS011;10593;48.398;10.698;2024-02-16T13:13:50;1.87;;;1.77;;
20865;SDS011;10593;48.398;10.698;2024-02-16T13:16:16;3.67;;;1.93;;
20865;SDS011;10593;48.398;10.698;2024-02-16T13:18:43;1.87;;;1.70;;
20865;SDS011;10593;48.398;10.698;2024-02-16T13:21:08;1.70;;;1.60;;
20865;SDS011;10593;48.398;10.698;2024-02-16T13:23:34;2.10;;;1.87;;
20865;SDS011;10593;48.398;10.698;2024-02-16T13:26:00;1.83;;;1.73;;
20865;SDS011;10593;48.398;10.698;2024-02-16T13:28:25;4.37;;;2.20;;
20865;SDS011;10593;48.398;10.698;2024-02-16T13:30:51;2.33;;;1.77;;
20865;SDS011;10593;48.398;10.698;2024-02-16T13:33:17;2.10;;;2.00;;
20865;SDS011;10593;48.398;10.698;2024-02-16T13:35:42;3.30;;;2.20;;
20865;SDS011;10593;48.398;10.698;2024-02-16T13:38:08;2.27;;;2.07;;
20865;SDS011;10593;48.398;10.698;2024-02-16T13:40:34;2.40;;;2.10;;
20865;SDS011;10593;48.398;10.698;2024-02-16T13:43:00;2.23;;;2.03;;
20865;SDS011;10593;48.398;10.698;2024-02-16T13:45:33;2.40;;;2.20;;
20865;SDS011;10593;48.398;10.698;2024-02-16T13:48:17;3.43;;;2.40;;
20865;SDS011;10593;48.398;10.698;2024-02-16T13:50:47;4.63;;;3.03;;
20865;SDS011;10593;48.398;10.698;2024-02-16T13:53:13;3.43;;;2.23;;
20865;SDS011;10593;48.398;10.698;2024-02-16T13:55:40;2.63;;;2.43;;
20865;SDS011;10593;48.398;10.698;2024-02-16T13:58:08;2.50;;;2.30;;
20865;SDS011;10593;48.398;10.698;2024-02-16T14:00:38;2.80;;;2.60;;
20865;SDS011;10593;48.398;10.698;2024-02-16T14:03:08;2.90;;;2.70;;
20865;SDS011;10593;48.398;10.698;2024-02-16T14:05:36;3.30;;;2.63;;
20865;SDS011;10593;48.398;10.698;2024-02-16T14:08:03;3.77;;;3.07;;
20865;SDS011;10593;48.398;10.698;2024-02-16T14:10:31;3.67;;;2.97;;
20865;SDS011;10593;48.398;10.698;2024-02-16T14:12:57;3.70;;;2.70;;
20865;SDS011;10593;48.398;10.698;2024-02-16T14:15:23;3.53;;;2.87;;
20865;SDS011;10593;48.398;10.698;2024-02-16T14:17:49;2.80;;;2.60;;
20865;SDS011;10593;48.398;10.698;2024-02-16T14:20:15;3.53;;;2.80;;
20865;SDS011;10593;48.398;10.698;2024-02-16T14:22:40;3.03;;;2.77;;
20865;SDS011;10593;48.398;10.698;2024-02-16T14:25:06;2.80;;;2.60;;
20865;SDS011;10593;48.398;10.698;2024-02-16T14:27:35;3.37;;;2.70;;
20865;SDS011;10593;48.398;10.698;2024-02-16T14:30:02;3.80;;;2.77;;
20865;SDS011;10593;48.398;10.698;2024-02-16T14:32:28;4.17;;;2.67;;
20865;SDS011;10593;48.398;10.698;2024-02-16T14:34:54;2.70;;;2.50;;
20865;SDS011;10593;48.398;10.698;2024-02-16T14:37:19;3.00;;;2.60;;
20865;SDS011;10593;48.398;10.698;2024-02-16T14:39:45;3.57;;;3.27;;